AirNav   Pilot Hours Calculator
 
 1025 users online  

21D Lake Elmo Airport
St Paul, Minnesota, USA

GOING TO ST PAUL?


FAA INFORMATION EFFECTIVE 22 APRIL 2021

Location

FAA Identifier: 21D
Lat/Long: 44-59-50.9729N 092-51-20.4529W
44-59.849548N 092-51.340882W
44.9974925,-92.8556814
(estimated)
Elevation: 932.9 ft. / 284.3 m (surveyed)
Variation: 01E (2010)
From city: 9 miles E of ST PAUL, MN
Time zone: UTC -5 (UTC -6 during Standard Time)
Zip code: 55082

Airport Operations

Airport use: Open to the public
Activation date: 10/1951
Control tower: no
ARTCC: MINNEAPOLIS CENTER
FSS: PRINCETON FLIGHT SERVICE STATION
NOTAMs facility: 21D (NOTAM-D service available)
Attendance: APR-OCT 0700-1900, NOV-MAR 0700-1700
Wind indicator: lighted, ADDITIONAL LIGHTED WIND-T
Segmented circle: no
Lights: MIRL RY 14/32 PRESET TO LOW, TO INCR INTST AND ACTVT REIL RYS 14 & 32 AND PAPI RY 32 - CTAF.
Beacon: white-green (lighted land airport)
Operates sunset to sunrise.

Airport Communications

CTAF/UNICOM: 122.8
WX AWOS-3: 120.075 (651-779-5949)
MINNEAPOLIS APPROACH: 121.2
MINNEAPOLIS DEPARTURE: 121.2
CLEARANCE DELIVERY: 118.625
WX ASOS at STP (9 nm SW): 118.35 (651-312-8888)
WX AWOS-3 at SGS (11 nm SW): 119.425 (651-457-8120)
WX AWOS-3 at RNH (16 nm NE): 120.0 (715-246-3202)
WX ASOS at MSP (17 nm SW): 135.35 (612-713-4174)
WX AWOS-3 at ANE (17 nm NW): 120.625 (763-780-9025)
WX AWOS-3 at OEO (20 nm N): 119.925 (715-294-3845)

Nearby radio navigation aids

VOR radial/distance  VOR name  Freq  Var
MSPr067/17.3MINNEAPOLIS VOR/DME115.3002E
GEPr106/23.7GOPHER VORTAC117.3006E
FGTr026/26.0FARMINGTON VORTAC115.7006E
FCMr067/27.0FLYING CLOUD VOR/DME117.7001E

Airport Services

Fuel available: 100LL JET-A
SELF SVC FUEL AVBL 24 HR WITH CREDIT CARD.
Parking: hangars and tiedowns
Airframe service: MAJOR
Powerplant service: MAJOR
Bottled oxygen: NONE
Bulk oxygen: NONE

Runway Information

Runway 14/32

Dimensions: 2849 x 75 ft. / 868 x 23 m
Surface: asphalt, in fair condition
Weight bearing capacity: 
Single wheel: 11.0
Runway edge lights: medium intensity
RUNWAY 14  RUNWAY 32
Latitude: 44-59.974828N44-59.629163N
Longitude: 092-51.651227W092-51.204762W
Elevation: 922.8 ft.926.0 ft.
Traffic pattern: leftleft
Runway heading: 136 magnetic, 137 true316 magnetic, 317 true
Markings: nonprecision, in good conditionbasic, in good condition
Visual slope indicator: 4-light PAPI on right (3.00 degrees glide path)
Runway end identifier lights: yesyes
Touchdown point: yes, no lightsyes, no lights
Obstructions: 13 ft. road, 442 ft. from runway, 260 ft. right of centerline, 18:1 slope to clear9 ft. road, 353 ft. from runway, 263 ft. right of centerline, 17:1 slope to clear

Runway 4/22

Dimensions: 2496 x 75 ft. / 761 x 23 m
Surface: asphalt, in fair condition
Weight bearing capacity: 
Single wheel: 13.0
RUNWAY 4  RUNWAY 22
Latitude: 44-59.744773N45-00.062878N
Longitude: 092-51.424563W092-51.058333W
Elevation: 923.9 ft.932.9 ft.
Traffic pattern: leftleft
Runway heading: 038 magnetic, 039 true218 magnetic, 219 true
Markings: nonprecision, in good conditionbasic, in good condition
Touchdown point: yes, no lightsyes, no lights
Obstructions: 64 ft. trees, 1530 ft. from runway, 74 ft. right of centerline, 20:1 slope to clearnone

Airport Ownership and Management from official FAA records

Ownership: Publicly-owned
Owner: METROPOLITAN AIRPORT CMSN
6040 28TH AVENUE SO.
MINNEAPOLIS, MN 55450
Phone 612-726-8100
Manager: PHILIP TIEDEMAN
6040 28TH AVENUE SO.
MINNEAPOLIS, MN 55450
Phone 763-717-0001
MGR EMAIL: PHILIP.TIEDEMAN@MSPMAC.ORG

Airport Operational Statistics

Aircraft based on the field: 169
Single engine airplanes: 162
Multi engine airplanes: 4
Helicopters: 3
    
Aircraft operations: avg 73/day *
55% transient general aviation
40% local general aviation
4% air taxi
<1% military
* for 12-month period ending 31 July 2019

Additional Remarks

A30A-32 DSGND AS CALM WND RWY.
ULTRALIGHT OPNS PROHIBITED.
FOR NOISE ABATEMENT PROCEDURES, WWW.MACNOISE.COM/PILOTS. ACFT PLEASE FOLLOW VOLUNTARY NOISE ABATEMENT PROCEDURES.
DEER, BIRDS & WILDLIFE ON & INVOF ARPT.
FOR CD CTC MINNEAPOLIS APCH AT 612-726-9086.

Instrument Procedures

NOTE: All procedures below are presented as PDF files. If you need a reader for these files, you should download the free Adobe Reader.

NOT FOR NAVIGATION. Please procure official charts for flight.
FAA instrument procedures published for use from 22 April 2021 at 0901Z to 20 May 2021 at 0900z.

 
STARs - Standard Terminal Arrivals
AGUDE FIVE **CHANGED**   download (273KB)
 
IAPs - Instrument Approach Procedures
RNAV (GPS) RWY 32   download (266KB)
NOTE: Special Alternate Minimums apply   download (173KB)
NOTE: Special Take-Off Minimums/Departure Procedures apply   download

Other nearby airports with instrument procedures:

KSTP - St Paul Downtown Airport Holman Field (9 nm SW)
KSGS - South St Paul Municipal Airport-Richard E Fleming Field (11 nm SW)
KRNH - New Richmond Regional Airport (16 nm NE)
KMSP - Minneapolis-St Paul International/Wold-Chamberlain Airport (17 nm SW)
KANE - Anoka County-Blaine Airport (Janes Field) (17 nm NW)
KOEO - L O Simenstad Municipal Airport (20 nm N)
 
Loc | Ops | Rwys | IFR | FBO | Links
Com | Nav | Svcs | Stats | Notes
Area around 21D (Lake Elmo Airport)
 
Road maps at: MapQuest Bing Google
 
Aerial photo
WARNING: Photo may not be current or correct
Aerial photo of 21D (Lake Elmo Airport)
Photo by Ed Wells
Photo taken 10-Oct-2010
looking northeast.

Do you have a better or more recent aerial photo of Lake Elmo Airport that you would like to share? If so, please send us your photo.

 
Sectional chart

 
Airport distance calculator
Flying to Lake Elmo Airport? Find the distance to fly.

From to 21D

Sunrise and sunset
Times for 14-May-2021
 Local
(UTC-5)
 Zulu
(UTC)
Morning civil twilight05:1010:10
Sunrise05:4410:44
Sunset20:3101:31
Evening civil twilight21:0502:05

Current date and time
Zulu (UTC)  15-May-2021 00:02:13
Local (UTC-5)  14-May-2021 19:02:13
 
METAR
K21D 142355Z AUTO 19011KT 10SM SCT055 SCT080 OVC085 15/04 A3014 RMK AO2
KSTP 
9nm SW 
142353Z 21013G21KT 10SM OVC070 15/06 A3014 RMK AO2 WSHFT 2242 SLP206 60000 T01500056 10194 20150 55008
KSGS 
15nm SW 
142355Z AUTO 20008KT 10SM BKN070 BKN075 15/05 A3014 RMK AO2 T01450054 10185 20145
KRNH 
16nm NE 
142355Z AUTO 15006KT 10SM BKN070 BKN090 OVC120 14/02 A3014 RMK AO2 T01440019 10210 20143
KANE 
17nm NW 
142351Z 21012G19KT 10SM VCSH SCT050 OVC070 16/05 A3012
KMSP 
17nm SW 
142353Z 19008KT 8SM -RA FEW050 BKN060 OVC080 13/08 A3014 RMK AO2 RAB25 SLP208 P0001 60001 T01280083 10172 20128 55005
KOEO 
20nm N 
142355Z AUTO 15008KT 10SM OVC080 15/03 A3016 RMK AO2 T01500025 10209 20150
TAF
KRNH 
16nm NE 
141739Z 1418/1518 19010KT P6SM BKN100 TEMPO 1419/1422 6SM -SHRA BR SCT030 BKN050 FM150300 16005KT P6SM BKN030 FM150700 15005KT P6SM BKN017 TEMPO 1509/1513 BKN009 FM151400 18006KT P6SM BKN012
KMSP 
17nm SW 
142107Z 1421/1524 12009KT P6SM OVC070 FM150400 13008KT P6SM BKN030 FM151400 16005KT P6SM BKN018 FM151900 18005KT P6SM SCT040
NOTAMs
Click for the latest NOTAMs
NOTAMs are issued by the DoD/FAA and will open in a separate window not controlled by AirNav.

 

 
 

FBO, Fuel Providers, and Aircraft Ground Support

  
 Business Name 
 
 Contact 
 
 Services / Description 
 
Fuel Prices
 
Comments
  
 Lake Elmo Aero
651-777-1399
[web site]
[email]
Aviation fuel, Aircraft ground handling, Oxygen service, Aircraft parking (ramp or tiedown), Hangars, GPU / Power cart, Flight training, Aircraft rental, ...
 
Courtesy car   Enterprise Rent-A-Car   National Car Rental   Cirrus  
 
More info about Lake Elmo Aero
Titan
100LL Jet A
AS $4.09 --- 
FS --- $2.69 
GUARANTEED
 
   write
AS=Assisted/Self Service
FS=Full service
Update Fuel Prices
 

Would you like to see your business listed on this page?

 If your business provides an interesting product or service to pilots, flight crews, aircraft, or users of the Lake Elmo Airport, you should consider listing it here.  To start the listing process, click on the button below
 
Add a business
 

Other Pages about Lake Elmo Airport

www.metroairports.org/...
 
Update a link
 
Copyright © AirNav, LLC. All rights reserved. Privacy Policy  Contact